Time;durP1;ratioP1;P1;durP2;ratioP2;P2;SDS_P1;SDS_P2;PMS_P1;PMS_P2;Temp;Humidity;BMP_temperature;BMP_pressure;BME280_temperature;BME280_humidity;BME280_pressure;Samples;Min_cycle;Max_cycle;Signal;HPM_P1;HPM_P2
2021/10/16 00:01:44;;;;;;;11.18;6.90;;;6.90;99.90;;;;;;5078738;28;20206;-47
2021/10/16 00:04:11;;;;;;;11.10;5.35;;;7.10;99.90;;;;;;5076603;28;20230;-44
2021/10/16 00:06:38;;;;;;;7.07;5.43;;;7.10;99.90;;;;;;5079726;28;20249;-48
2021/10/16 00:09:06;;;;;;;7.30;6.53;;;7.20;99.90;;;;;;5079114;28;20240;-47
2021/10/16 00:11:33;;;;;;;7.85;6.57;;;7.10;99.90;;;;;;5079917;28;20207;-48
2021/10/16 00:14:00;;;;;;;6.53;5.47;;;7.10;99.90;;;;;;5071919;28;20416;-48
2021/10/16 00:16:27;;;;;;;7.60;6.75;;;7.10;99.90;;;;;;5079193;28;20199;-47
2021/10/16 00:18:55;;;;;;;7.35;6.65;;;7.10;99.90;;;;;;5079204;28;20577;-44
2021/10/16 00:21:22;;;;;;;7.70;6.95;;;7.10;99.90;;;;;;5079959;28;20508;-44
2021/10/16 00:23:50;;;;;;;8.65;7.38;;;7.00;99.90;;;;;;5079622;28;20264;-45
2021/10/16 00:26:17;;;;;;;9.32;8.07;;;7.00;99.90;;;;;;5079476;28;20194;-47
2021/10/16 00:28:44;;;;;;;13.98;7.80;;;7.00;99.90;;;;;;5079811;28;20490;-47
2021/10/16 00:31:11;;;;;;;12.30;7.43;;;6.80;99.90;;;;;;5079049;28;20252;-44
2021/10/16 00:33:38;;;;;;;11.23;8.85;;;6.90;99.90;;;;;;5079624;28;20226;-45
2021/10/16 00:36:05;;;;;;;13.63;7.50;;;7.00;99.90;;;;;;5079278;28;20244;-45
2021/10/16 00:38:32;;;;;;;8.02;6.40;;;7.00;99.90;;;;;;5079629;28;20428;-44
2021/10/16 00:40:59;;;;;;;11.73;7.00;;;6.80;99.90;;;;;;5079713;28;20225;-44
2021/10/16 00:43:27;;;;;;;7.68;6.78;;;6.90;99.90;;;;;;5079864;28;20275;-48
2021/10/16 00:45:54;;;;;;;8.07;7.28;;;7.10;99.90;;;;;;5079581;28;20195;-45
2021/10/16 00:48:21;;;;;;;10.25;6.90;;;7.10;99.90;;;;;;5078957;28;20203;-45
2021/10/16 00:50:48;;;;;;;10.63;7.47;;;7.10;99.90;;;;;;5080184;28;20389;-44
2021/10/16 00:53:16;;;;;;;9.05;7.25;;;7.10;99.90;;;;;;5079314;28;20215;-41
2021/10/16 00:55:44;;;;;;;11.65;8.48;;;7.20;99.90;;;;;;5078552;28;20202;-45
2021/10/16 00:58:12;;;;;;;10.00;7.82;;;7.00;99.90;;;;;;5078805;28;20517;-47
2021/10/16 01:00:39;;;;;;;8.75;7.82;;;7.10;99.90;;;;;;5079200;28;20256;-46
2021/10/16 01:03:07;;;;;;;11.85;8.57;;;7.10;99.90;;;;;;5078816;28;20397;-47
2021/10/16 01:05:35;;;;;;;8.45;6.80;;;7.00;99.90;;;;;;5078866;28;20195;-48
2021/10/16 01:08:03;;;;;;;8.30;6.35;;;7.10;99.90;;;;;;5079036;28;20241;-49
2021/10/16 01:10:30;;;;;;;16.77;7.82;;;7.20;99.90;;;;;;5078982;28;20249;-45
2021/10/16 01:13:01;;;;;;;12.05;7.45;;;7.00;99.90;;;;;;5079169;28;20259;-46
2021/10/16 01:15:41;;;;;;;9.85;6.72;;;7.00;99.90;;;;;;5071776;28;20203;-46
2021/10/16 01:18:09;;;;;;;10.30;8.05;;;6.90;99.90;;;;;;5071692;28;20249;-48
2021/10/16 01:20:44;;;;;;;12.57;8.73;;;7.00;99.90;;;;;;5073359;28;20533;-48
2021/10/16 01:23:11;;;;;;;8.95;7.43;;;7.00;99.90;;;;;;5079097;28;20264;-48
2021/10/16 01:25:40;;;;;;;9.80;7.82;;;7.00;99.90;;;;;;5083167;28;20244;-41
2021/10/16 01:28:08;;;;;;;11.20;7.95;;;7.10;99.90;;;;;;5082791;28;20237;-45
2021/10/16 01:30:35;;;;;;;8.68;7.00;;;7.10;99.90;;;;;;5079573;28;20202;-46
2021/10/16 01:33:02;;;;;;;9.40;7.38;;;7.10;99.90;;;;;;5082967;28;20242;-44
2021/10/16 01:35:30;;;;;;;12.50;8.57;;;7.00;99.90;;;;;;5083238;28;20419;-45
2021/10/16 01:37:57;;;;;;;13.38;7.90;;;6.90;99.90;;;;;;5082512;28;20273;-46
2021/10/16 01:40:24;;;;;;;16.00;8.48;;;6.70;99.90;;;;;;5075643;28;20277;-45
2021/10/16 01:42:53;;;;;;;8.13;7.05;;;6.60;99.90;;;;;;5081766;28;20209;-43
2021/10/16 01:45:20;;;;;;;15.55;7.95;;;6.50;99.90;;;;;;5067282;28;20237;-47
2021/10/16 01:47:49;;;;;;;19.00;7.88;;;6.40;99.90;;;;;;5082455;28;20252;-46
2021/10/16 01:50:18;;;;;;;9.18;7.75;;;6.50;99.90;;;;;;5082546;28;20244;-43
2021/10/16 01:52:45;;;;;;;12.98;7.72;;;6.40;99.90;;;;;;5082726;28;20220;-45
2021/10/16 01:55:12;;;;;;;12.05;8.93;;;6.50;99.90;;;;;;5082972;28;20214;-44
2021/10/16 01:57:41;;;;;;;20.38;9.82;;;6.60;99.90;;;;;;5081567;28;20568;-42
2021/10/16 02:00:09;;;;;;;11.02;7.80;;;6.60;99.90;;;;;;5082386;28;20219;-45
2021/10/16 02:02:36;;;;;;;17.83;8.70;;;6.60;99.90;;;;;;5082660;28;20203;-46
2021/10/16 02:05:05;;;;;;;12.23;8.10;;;6.50;99.90;;;;;;5082565;28;20223;-46
2021/10/16 02:07:32;;;;;;;11.07;8.05;;;6.50;99.90;;;;;;5082271;28;20267;-48
2021/10/16 02:10:00;;;;;;;10.45;9.15;;;6.50;99.90;;;;;;5082032;28;20202;-48
2021/10/16 02:12:27;;;;;;;12.95;8.98;;;6.60;99.90;;;;;;5081950;28;20236;-46
2021/10/16 02:14:54;;;;;;;13.95;9.07;;;6.60;99.90;;;;;;5081727;28;20545;-45
2021/10/16 02:17:21;;;;;;;12.27;9.32;;;6.70;99.90;;;;;;5082138;28;20202;-47
2021/10/16 02:19:48;;;;;;;10.38;9.30;;;6.70;99.90;;;;;;5081562;28;20202;-47
2021/10/16 02:22:16;;;;;;;17.02;10.02;;;6.70;99.90;;;;;;5082073;28;20243;-43
2021/10/16 02:24:43;;;;;;;13.00;7.53;;;6.70;99.90;;;;;;5082040;28;20237;-46
2021/10/16 02:27:10;;;;;;;13.50;8.75;;;6.70;99.90;;;;;;5082028;28;20195;-43
2021/10/16 02:29:37;;;;;;;13.27;8.57;;;6.70;99.90;;;;;;5081845;28;20195;-50
2021/10/16 02:32:05;;;;;;;16.52;10.15;;;6.60;99.90;;;;;;5081710;28;20529;-47
2021/10/16 02:34:33;;;;;;;17.92;8.85;;;6.60;99.90;;;;;;5081547;28;20528;-44
2021/10/16 02:37:00;;;;;;;10.00;8.80;;;6.50;99.90;;;;;;5081226;28;20238;-44
2021/10/16 02:39:27;;;;;;;19.35;9.13;;;6.60;99.90;;;;;;5079056;28;20202;-48
2021/10/16 02:41:56;;;;;;;13.50;9.10;;;6.70;99.90;;;;;;5082150;28;20230;-43
2021/10/16 02:44:24;;;;;;;14.07;9.57;;;6.70;99.90;;;;;;5081850;28;20429;-47
2021/10/16 02:46:51;;;;;;;19.90;10.38;;;6.80;99.90;;;;;;5081369;28;20233;-45
2021/10/16 02:49:18;;;;;;;11.82;8.27;;;6.60;99.90;;;;;;5081561;28;20589;-45
2021/10/16 02:51:46;;;;;;;16.70;9.63;;;6.60;99.90;;;;;;5081626;28;20202;-44
2021/10/16 02:54:14;;;;;;;13.73;9.55;;;6.80;99.90;;;;;;5081264;28;20272;-44
2021/10/16 02:56:41;;;;;;;13.00;9.52;;;6.80;99.90;;;;;;5081972;28;20439;-43
2021/10/16 02:59:08;;;;;;;13.93;9.43;;;7.00;99.90;;;;;;5081264;28;20203;-44
2021/10/16 03:01:36;;;;;;;16.88;9.93;;;7.00;99.90;;;;;;5081451;28;20222;-49
2021/10/16 03:04:03;;;;;;;18.75;9.43;;;7.00;99.90;;;;;;5081175;28;20253;-48
2021/10/16 03:06:31;;;;;;;19.10;10.25;;;6.90;99.90;;;;;;5073296;28;20236;-45
2021/10/16 03:08:58;;;;;;;15.30;10.45;;;6.90;99.90;;;;;;5080931;28;20197;-47
2021/10/16 03:11:25;;;;;;;16.27;9.82;;;6.90;99.90;;;;;;5080816;28;20405;-46
2021/10/16 03:13:52;;;;;;;18.25;8.40;;;6.70;99.90;;;;;;5080879;28;20446;-48
2021/10/16 03:16:20;;;;;;;15.85;9.70;;;6.60;99.90;;;;;;5078010;28;20207;-45
2021/10/16 03:18:48;;;;;;;9.55;7.28;;;6.60;99.90;;;;;;5081874;28;20218;-47
2021/10/16 03:21:15;;;;;;;12.02;7.50;;;6.80;99.90;;;;;;5081628;28;20224;-44
2021/10/16 03:23:42;;;;;;;10.27;8.05;;;6.70;99.90;;;;;;5082252;28;20226;-47
2021/10/16 03:26:09;;;;;;;8.75;6.90;;;6.50;99.90;;;;;;5080518;28;20202;-47
2021/10/16 03:28:36;;;;;;;10.05;7.05;;;6.40;99.90;;;;;;5074632;28;20198;-45
2021/10/16 03:31:03;;;;;;;8.55;7.10;;;6.30;99.90;;;;;;5080315;28;20255;-45
2021/10/16 03:33:31;;;;;;;24.23;8.20;;;6.30;99.90;;;;;;5080004;28;20289;-44
2021/10/16 03:35:58;;;;;;;11.30;7.78;;;6.30;99.90;;;;;;5077910;28;20504;-44
2021/10/16 03:38:25;;;;;;;13.52;7.88;;;6.30;99.90;;;;;;5080414;28;20249;-46
2021/10/16 03:40:52;;;;;;;10.18;7.80;;;6.20;99.90;;;;;;5080238;28;20245;-46
2021/10/16 03:43:19;;;;;;;14.25;6.90;;;6.30;99.90;;;;;;5080582;28;20267;-43
2021/10/16 03:45:47;;;;;;;11.23;6.68;;;6.50;99.90;;;;;;5080713;28;20202;-45
2021/10/16 03:48:14;;;;;;;11.63;7.78;;;6.50;99.90;;;;;;5073633;28;20411;-46
2021/10/16 03:50:41;;;;;;;9.93;7.05;;;6.40;99.90;;;;;;5080857;28;20201;-45
2021/10/16 03:53:08;;;;;;;11.80;7.10;;;6.30;99.90;;;;;;5080283;28;20230;-48
2021/10/16 03:55:35;;;;;;;14.90;8.60;;;6.30;99.90;;;;;;5080275;28;20224;-49
2021/10/16 03:58:03;;;;;;;17.60;8.52;;;6.30;99.90;;;;;;5080004;28;20214;-47
2021/10/16 04:00:30;;;;;;;8.57;7.68;;;6.30;99.90;;;;;;5080177;28;20597;-41
2021/10/16 04:03:03;;;;;;;8.10;7.13;;;6.40;99.90;;;;;;5080775;28;20357;-45
2021/10/16 04:05:32;;;;;;;19.70;8.15;;;6.30;99.90;;;;;;5075521;28;20198;-43
2021/10/16 04:08:00;;;;;;;8.93;7.63;;;6.30;99.90;;;;;;5082616;28;20205;-45
2021/10/16 04:10:30;;;;;;;9.15;6.80;;;6.40;99.90;;;;;;5082057;28;20228;-43
2021/10/16 04:12:58;;;;;;;8.90;7.03;;;6.60;99.90;;;;;;5079577;28;20251;-44
2021/10/16 04:15:25;;;;;;;8.15;6.40;;;6.50;99.90;;;;;;5080167;28;20209;-38
2021/10/16 04:17:52;;;;;;;14.15;8.18;;;6.60;99.90;;;;;;5080428;28;20447;-47
2021/10/16 04:20:21;;;;;;;10.88;8.05;;;6.50;99.90;;;;;;5075343;28;20372;-49
2021/10/16 04:22:48;;;;;;;13.10;8.02;;;6.50;99.90;;;;;;5079721;28;20189;-44
2021/10/16 04:25:16;;;;;;;17.98;8.10;;;6.50;99.90;;;;;;5079755;28;20212;-46
2021/10/16 04:27:46;;;;;;;13.80;6.50;;;6.50;99.90;;;;;;5079765;28;20202;-45
2021/10/16 04:30:13;;;;;;;13.18;7.55;;;6.50;99.90;;;;;;5080134;28;20240;-45
2021/10/16 04:32:40;;;;;;;9.25;6.95;;;6.40;99.90;;;;;;5079801;28;20532;-44
2021/10/16 04:35:09;;;;;;;10.07;7.70;;;6.40;99.90;;;;;;5075990;28;20210;-47
2021/10/16 04:37:36;;;;;;;11.10;7.13;;;6.40;99.90;;;;;;5073856;28;20206;-46
2021/10/16 04:40:18;;;;;;;9.75;7.55;;;6.30;99.90;;;;;;5079930;28;20248;-49
2021/10/16 04:42:47;;;;;;;14.77;6.45;;;6.30;99.90;;;;;;5075186;28;20201;-45
2021/10/16 04:45:14;;;;;;;12.35;8.48;;;6.30;99.90;;;;;;5079625;28;20509;-45
2021/10/16 04:47:42;;;;;;;12.32;7.15;;;6.40;99.90;;;;;;5079605;28;20261;-44
2021/10/16 04:50:10;;;;;;;8.10;6.47;;;6.40;99.90;;;;;;5079720;28;20635;-45
2021/10/16 04:52:37;;;;;;;21.65;7.78;;;6.30;99.90;;;;;;5079516;28;20199;-44
2021/10/16 04:55:06;;;;;;;10.23;7.07;;;6.50;99.90;;;;;;5079616;28;20517;-48
2021/10/16 04:57:33;;;;;;;13.80;9.10;;;6.70;99.90;;;;;;5080038;28;20202;-46
2021/10/16 05:00:01;;;;;;;18.05;8.85;;;6.90;99.90;;;;;;5083532;28;20244;-44
2021/10/16 05:02:28;;;;;;;10.02;8.25;;;6.90;99.90;;;;;;5083587;28;20226;-48
2021/10/16 05:04:55;;;;;;;12.13;8.27;;;6.70;99.90;;;;;;5076713;28;20219;-46
2021/10/16 05:07:22;;;;;;;11.45;7.38;;;6.90;99.90;;;;;;5083690;28;20195;-45
2021/10/16 05:09:50;;;;;;;12.25;8.75;;;7.10;99.90;;;;;;5083132;28;20212;-49
2021/10/16 05:12:17;;;;;;;13.25;9.18;;;7.30;99.90;;;;;;5083382;28;20202;-45
2021/10/16 05:14:45;;;;;;;15.70;8.40;;;7.40;99.90;;;;;;5083364;28;20223;-46
2021/10/16 05:17:12;;;;;;;41.58;19.02;;;7.50;99.90;;;;;;5083149;28;20215;-47
2021/10/16 05:19:40;;;;;;;26.25;15.35;;;7.60;99.90;;;;;;5082978;28;20246;-46
2021/10/16 05:22:06;;;;;;;24.02;11.95;;;7.80;99.90;;;;;;5082936;28;20458;-49
2021/10/16 05:24:34;;;;;;;23.05;11.93;;;7.50;99.90;;;;;;5083105;28;20594;-45
2021/10/16 05:27:01;;;;;;;20.02;11.23;;;7.70;99.90;;;;;;5082914;28;20440;-43
2021/10/16 05:29:29;;;;;;;22.67;14.88;;;7.60;99.90;;;;;;5082513;28;20256;-45
2021/10/16 05:31:56;;;;;;;16.38;12.23;;;7.60;99.90;;;;;;5082901;28;20440;-47
2021/10/16 05:34:23;;;;;;;24.90;13.68;;;7.50;99.90;;;;;;5079197;28;20451;-46
2021/10/16 05:36:50;;;;;;;14.43;9.38;;;7.30;99.90;;;;;;5075700;28;20207;-43
2021/10/16 05:39:17;;;;;;;16.10;9.43;;;7.10;99.90;;;;;;5082464;28;20206;-44
2021/10/16 05:41:47;;;;;;;10.38;7.90;;;7.10;99.90;;;;;;5082731;28;20424;-51
2021/10/16 05:44:14;;;;;;;12.80;9.23;;;7.10;99.90;;;;;;5081891;28;20234;-47
2021/10/16 05:46:42;;;;;;;22.52;9.90;;;7.00;99.90;;;;;;5083127;28;20440;-47
2021/10/16 05:49:09;;;;;;;20.23;9.07;;;7.10;99.90;;;;;;5082416;28;20195;-45
2021/10/16 05:51:36;;;;;;;12.57;10.50;;;7.10;99.90;;;;;;5082395;28;20547;-40
2021/10/16 05:54:03;;;;;;;12.82;8.82;;;7.10;99.90;;;;;;5080123;28;20238;-49
2021/10/16 05:56:31;;;;;;;14.68;9.27;;;7.10;99.90;;;;;;5082506;28;20199;-42
2021/10/16 05:58:58;;;;;;;20.35;9.95;;;7.10;99.90;;;;;;5082644;28;20199;-53
2021/10/16 06:01:27;;;;;;;24.92;11.75;;;7.20;99.90;;;;;;5077754;28;20260;-44
2021/10/16 06:03:54;;;;;;;21.15;10.52;;;7.10;99.90;;;;;;5082766;28;20449;-50
2021/10/16 06:06:21;;;;;;;18.35;11.57;;;7.10;99.90;;;;;;5082536;28;20214;-45
2021/10/16 06:08:48;;;;;;;23.60;11.93;;;7.10;99.90;;;;;;5082685;28;20241;-45
2021/10/16 06:11:16;;;;;;;22.50;12.32;;;7.10;99.90;;;;;;5081592;28;20206;-44
2021/10/16 06:13:43;;;;;;;19.45;13.15;;;7.10;99.90;;;;;;5062140;28;20549;-48
2021/10/16 06:16:11;;;;;;;21.55;11.32;;;7.20;99.90;;;;;;5077079;28;20236;-46
2021/10/16 06:18:40;;;;;;;20.58;12.02;;;7.20;99.90;;;;;;5075538;28;20199;-47
2021/10/16 06:21:08;;;;;;;28.30;13.10;;;7.30;99.90;;;;;;5080714;28;20226;-56
2021/10/16 06:23:35;;;;;;;17.08;12.45;;;7.40;99.90;;;;;;5082236;28;20260;-44
2021/10/16 06:26:03;;;;;;;21.17;13.05;;;7.50;99.90;;;;;;5081770;28;20214;-44
2021/10/16 06:28:31;;;;;;;19.85;13.40;;;7.50;99.90;;;;;;5081832;28;20240;-46
2021/10/16 06:30:58;;;;;;;31.52;13.98;;;7.50;99.90;;;;;;5081742;28;20252;-44
2021/10/16 06:33:25;;;;;;;21.55;13.48;;;7.50;99.90;;;;;;5082096;28;20233;-47
2021/10/16 06:35:53;;;;;;;20.58;11.63;;;7.70;99.90;;;;;;5072274;28;20398;-48
2021/10/16 06:38:20;;;;;;;20.63;12.90;;;7.70;99.90;;;;;;5073512;28;20418;-43
2021/10/16 06:40:48;;;;;;;15.68;10.80;;;7.70;99.90;;;;;;5079353;28;20198;-48
2021/10/16 06:43:15;;;;;;;24.38;14.82;;;7.70;99.90;;;;;;5081906;28;20269;-44
2021/10/16 06:45:43;;;;;;;18.98;11.50;;;7.70;99.90;;;;;;5079771;28;20548;-44
2021/10/16 06:48:10;;;;;;;17.27;11.98;;;7.80;99.90;;;;;;5081466;28;20431;-40
2021/10/16 06:50:37;;;;;;;20.65;12.73;;;7.90;99.90;;;;;;5081564;28;20318;-44
2021/10/16 06:53:05;;;;;;;17.15;9.48;;;8.20;99.90;;;;;;5081683;28;20242;-44
2021/10/16 06:55:32;;;;;;;15.50;9.63;;;8.40;99.90;;;;;;5081793;28;20199;-48
2021/10/16 06:57:59;;;;;;;15.02;8.85;;;8.60;99.90;;;;;;5077234;28;20431;-43
2021/10/16 07:00:26;;;;;;;19.20;9.50;;;8.70;99.90;;;;;;5079437;28;20199;-48
2021/10/16 07:02:54;;;;;;;12.43;8.43;;;8.80;99.90;;;;;;5075923;28;20222;-46
2021/10/16 07:05:21;;;;;;;8.07;7.05;;;8.80;99.90;;;;;;5082197;28;20218;-46
2021/10/16 07:07:48;;;;;;;7.93;7.03;;;8.80;99.90;;;;;;5081700;28;20211;-47
2021/10/16 07:10:15;;;;;;;11.57;7.80;;;8.80;99.90;;;;;;5080272;28;20509;-45
2021/10/16 07:12:42;;;;;;;9.95;7.43;;;8.80;99.90;;;;;;5075796;28;20198;-45
2021/10/16 07:15:09;;;;;;;18.40;9.57;;;8.80;99.90;;;;;;5080460;28;20203;-49
2021/10/16 07:17:37;;;;;;;11.75;7.65;;;8.70;99.90;;;;;;5075775;28;20509;-44
2021/10/16 07:20:05;;;;;;;10.52;5.93;;;8.70;99.90;;;;;;5080227;28;20207;-44
2021/10/16 07:22:33;;;;;;;12.73;7.35;;;8.70;99.90;;;;;;5080277;28;20241;-44
2021/10/16 07:25:00;;;;;;;9.88;7.70;;;8.70;99.90;;;;;;5078321;28;20252;-50
2021/10/16 07:27:27;;;;;;;8.55;6.20;;;8.70;99.90;;;;;;5071492;28;20489;-44
2021/10/16 07:29:54;;;;;;;9.90;6.93;;;8.80;99.90;;;;;;5080062;28;20551;-42
2021/10/16 07:32:21;;;;;;;16.15;8.07;;;8.80;99.90;;;;;;5079990;28;20199;-47
2021/10/16 07:34:48;;;;;;;10.93;6.95;;;8.80;99.90;;;;;;5080050;28;20273;-48
2021/10/16 07:37:15;;;;;;;13.73;8.27;;;9.00;99.90;;;;;;5073516;28;20198;-45
2021/10/16 07:39:43;;;;;;;26.73;8.93;;;9.20;99.90;;;;;;5068190;28;20192;-44
2021/10/16 07:42:10;;;;;;;10.90;6.82;;;9.30;99.90;;;;;;5066325;28;20265;-47
2021/10/16 07:44:37;;;;;;;18.42;9.75;;;9.40;99.90;;;;;;5063280;28;20286;-44
2021/10/16 07:47:05;;;;;;;10.15;6.72;;;9.60;99.90;;;;;;5064159;28;20254;-47
2021/10/16 07:49:32;;;;;;;13.63;6.82;;;9.60;99.90;;;;;;5062215;28;20429;-45
2021/10/16 07:51:59;;;;;;;10.98;8.18;;;9.60;99.90;;;;;;5065954;28;20310;-44
2021/10/16 07:54:26;;;;;;;9.50;7.70;;;9.70;99.90;;;;;;5063965;28;20227;-47
2021/10/16 07:56:53;;;;;;;12.52;7.90;;;10.00;99.90;;;;;;5061970;28;20212;-45
2021/10/16 07:59:21;;;;;;;10.38;6.88;;;10.20;99.90;;;;;;5076738;28;20245;-50
2021/10/16 08:01:47;;;;;;;10.80;7.40;;;10.50;99.90;;;;;;5072448;28;20223;-44
2021/10/16 08:04:15;;;;;;;9.25;6.85;;;10.50;99.90;;;;;;5069695;28;20538;-48
2021/10/16 08:06:42;;;;;;;12.20;6.45;;;10.50;99.90;;;;;;5068544;28;20203;-46
2021/10/16 08:09:09;;;;;;;13.32;7.97;;;10.70;99.90;;;;;;5084057;28;20196;-48
2021/10/16 08:11:37;;;;;;;16.50;6.95;;;10.70;99.90;;;;;;5074231;28;20200;-43
2021/10/16 08:14:05;;;;;;;7.25;6.55;;;10.40;99.90;;;;;;5079410;28;20391;-48
2021/10/16 08:16:32;;;;;;;12.57;6.32;;;10.10;99.90;;;;;;5079591;28;20200;-45
2021/10/16 08:18:59;;;;;;;10.45;7.70;;;10.10;99.90;;;;;;5079179;28;20268;-44
2021/10/16 08:21:26;;;;;;;11.43;6.70;;;10.00;99.90;;;;;;5079579;28;20483;-49
2021/10/16 08:23:54;;;;;;;11.18;7.53;;;9.90;99.90;;;;;;5079269;28;20603;-45
2021/10/16 08:26:21;;;;;;;9.75;7.55;;;9.90;99.90;;;;;;5079844;28;20195;-47
2021/10/16 08:28:48;;;;;;;14.88;9.40;;;9.90;99.90;;;;;;5079535;28;20399;-47
2021/10/16 08:31:16;;;;;;;9.90;6.07;;;9.90;99.90;;;;;;5079577;28;20314;-45
2021/10/16 08:33:43;;;;;;;10.40;6.97;;;10.10;99.90;;;;;;5079064;28;20253;-48
2021/10/16 08:36:12;;;;;;;9.73;6.95;;;10.30;99.90;;;;;;5083304;28;20219;-46
2021/10/16 08:38:41;;;;;;;11.07;7.57;;;10.50;99.90;;;;;;5082953;28;20201;-48
2021/10/16 08:41:12;;;;;;;28.30;6.38;;;10.80;99.90;;;;;;5080866;28;20222;-49
2021/10/16 08:43:40;;;;;;;13.07;6.95;;;11.30;99.90;;;;;;5074900;28;20235;-44
2021/10/16 08:46:08;;;;;;;11.18;7.30;;;11.50;99.90;;;;;;5079244;28;20198;-48
2021/10/16 08:48:39;;;;;;;8.75;6.10;;;11.60;99.90;;;;;;5072567;28;20198;-44
2021/10/16 08:51:09;;;;;;;9.45;6.50;;;11.80;99.90;;;;;;5068277;28;20386;-47
2021/10/16 08:53:36;;;;;;;6.90;5.32;;;12.00;99.90;;;;;;5064410;28;20221;-46
2021/10/16 08:56:07;;;;;;;12.32;6.07;;;12.10;99.90;;;;;;5074088;28;20202;-45
2021/10/16 08:58:36;;;;;;;9.75;6.70;;;12.10;99.90;;;;;;5071004;28;20213;-42
2021/10/16 09:01:05;;;;;;;13.00;7.10;;;12.10;99.90;;;;;;5075428;28;20202;-46
2021/10/16 09:03:40;;;;;;;8.20;4.75;;;12.40;99.90;;;;;;5075124;28;20258;-46
2021/10/16 09:06:26;;;;;;;10.20;5.65;;;12.60;99.90;;;;;;5080879;28;20233;-45
2021/10/16 09:09:05;;;;;;;10.43;5.60;;;12.50;99.90;;;;;;5083247;28;20190;-46
2021/10/16 09:11:34;;;;;;;13.43;5.50;;;12.30;99.90;;;;;;5082793;28;20198;-49
2021/10/16 09:14:12;;;;;;;8.50;5.70;;;12.10;99.90;;;;;;5082689;28;20343;-43
2021/10/16 09:16:45;;;;;;;7.97;7.10;;;11.80;99.90;;;;;;5082645;28;20380;-44
2021/10/16 09:19:25;;;;;;;10.02;6.88;;;11.50;99.90;;;;;;5082584;28;20202;-45
2021/10/16 09:22:07;;;;;;;13.75;6.57;;;11.50;99.90;;;;;;5080291;28;20283;-47
2021/10/16 09:24:38;;;;;;;10.43;6.15;;;11.50;99.90;;;;;;5076224;28;20551;-46
2021/10/16 09:27:34;;;;;;;6.95;5.07;;;11.50;99.90;;;;;;5083012;28;20201;-46
2021/10/16 09:30:05;;;;;;;5.68;5.18;;;11.70;99.90;;;;;;5077090;28;20235;-48
2021/10/16 09:32:35;;;;;;;12.05;5.55;;;11.90;99.90;;;;;;5082253;28;20202;-44
2021/10/16 09:35:08;;;;;;;13.35;5.65;;;11.80;99.90;;;;;;5082770;28;20229;-45
2021/10/16 09:37:51;;;;;;;9.63;5.35;;;12.10;99.90;;;;;;5079062;28;20201;-47
2021/10/16 09:40:40;;;;;;;11.43;6.07;;;12.50;99.90;;;;;;5082249;28;20214;-42
2021/10/16 09:43:21;;;;;;;8.88;4.43;;;12.60;99.90;;;;;;5081953;28;20252;-46
2021/10/16 09:46:09;;;;;;;10.10;5.57;;;12.70;99.90;;;;;;5082239;28;20191;-46
2021/10/16 09:48:36;;;;;;;6.55;4.55;;;12.90;99.90;;;;;;5076368;28;20236;-43
2021/10/16 09:51:04;;;;;;;6.82;5.28;;;12.90;99.90;;;;;;5081157;28;20330;-47
2021/10/16 09:53:31;;;;;;;9.48;5.35;;;12.80;99.90;;;;;;5075684;28;20556;-43
2021/10/16 09:55:58;;;;;;;10.20;6.50;;;12.60;99.90;;;;;;5082980;28;20202;-44
2021/10/16 09:58:27;;;;;;;5.97;5.45;;;12.50;99.90;;;;;;5082977;28;20202;-42
2021/10/16 10:00:54;;;;;;;6.15;5.05;;;12.50;99.90;;;;;;5083354;28;20378;-42
2021/10/16 10:03:26;;;;;;;10.80;4.65;;;12.30;99.90;;;;;;5082747;28;20232;-42
2021/10/16 10:05:54;;;;;;;9.70;6.40;;;12.20;99.90;;;;;;5083466;28;20195;-43
2021/10/16 10:08:22;;;;;;;8.20;5.00;;;12.00;99.90;;;;;;5080259;28;20198;-43
2021/10/16 10:10:50;;;;;;;5.75;4.50;;;12.00;99.90;;;;;;5083064;28;20207;-43
2021/10/16 10:13:17;;;;;;;8.32;5.93;;;11.80;99.90;;;;;;5082738;28;20252;-49
2021/10/16 10:15:45;;;;;;;7.00;5.03;;;11.70;99.90;;;;;;5082895;28;20497;-43
2021/10/16 10:20:59;;;;;;;7.22;6.03;;;11.80;99.90;;;;;;5082392;28;20201;-46
2021/10/16 10:23:27;;;;;;;7.18;4.90;;;11.80;99.90;;;;;;5081118;28;20551;-44
2021/10/16 10:26:23;;;;;;;7.72;5.18;;;11.80;99.90;;;;;;5081449;28;20252;-46
2021/10/16 10:28:56;;;;;;;6.70;4.25;;;12.20;99.90;;;;;;5081422;28;20202;-47
2021/10/16 10:31:50;;;;;;;9.25;4.07;;;12.40;99.90;;;;;;5074795;28;20210;-44
2021/10/16 10:34:35;;;;;;;8.75;5.53;;;12.40;99.90;;;;;;5077381;28;20234;-46
2021/10/16 10:37:14;;;;;;;14.50;4.78;;;12.80;99.90;;;;;;5075281;28;20485;-48
2021/10/16 10:39:43;;;;;;;5.00;3.20;;;13.30;99.90;;;;;;5081910;28;20569;-45
2021/10/16 10:42:13;;;;;;;8.82;5.35;;;13.20;99.90;;;;;;5080890;28;20207;-43
2021/10/16 10:44:45;;;;;;;7.00;4.68;;;13.40;99.90;;;;;;5081874;28;20398;-46
2021/10/16 10:47:31;;;;;;;5.13;4.10;;;13.30;99.90;;;;;;5080979;28;20205;-44
2021/10/16 10:50:10;;;;;;;4.95;3.88;;;13.00;99.90;;;;;;5082649;28;20199;-43
2021/10/16 10:53:05;;;;;;;7.40;4.03;;;12.40;99.90;;;;;;5074578;28;20412;-49
2021/10/16 10:56:07;;;;;;;4.45;3.95;;;12.40;99.90;;;;;;5079301;28;20202;-44
2021/10/16 10:58:51;;;;;;;7.07;3.30;;;12.50;99.90;;;;;;5073718;28;20236;-45
2021/10/16 11:01:50;;;;;;;8.85;4.90;;;12.30;99.90;;;;;;5080008;28;20397;-46
2021/10/16 11:04:47;;;;;;;4.53;4.05;;;12.40;99.90;;;;;;5080666;28;20281;-47
2021/10/16 11:07:44;;;;;;;5.90;3.10;;;12.30;99.90;;;;;;5080452;28;20241;-47
2021/10/16 11:10:12;;;;;;;4.00;2.97;;;12.10;99.90;;;;;;5079399;28;20513;-50
2021/10/16 11:12:42;;;;;;;10.93;4.55;;;11.90;99.90;;;;;;5080268;28;20425;-45
2021/10/16 11:15:12;;;;;;;4.25;2.58;;;12.10;99.90;;;;;;5080536;28;20210;-45
2021/10/16 11:17:44;;;;;;;3.95;2.72;;;12.30;99.90;;;;;;5080329;28;20418;-47
2021/10/16 11:20:27;;;;;;;5.65;2.60;;;12.50;99.90;;;;;;5080966;28;20201;-46
2021/10/16 11:22:55;;;;;;;2.95;2.75;;;12.90;99.90;;;;;;5077025;28;20263;-45
2021/10/16 11:25:25;;;;;;;2.42;2.22;;;12.90;99.90;;;;;;5079836;28;20198;-44
2021/10/16 11:28:18;;;;;;;4.18;2.75;;;12.80;99.90;;;;;;5062721;28;20249;-46
2021/10/16 11:30:47;;;;;;;8.85;4.22;;;12.80;99.90;;;;;;5059486;28;20210;-44
2021/10/16 11:33:24;;;;;;;3.25;3.05;;;12.80;99.90;;;;;;5082157;28;20413;-45
2021/10/16 11:35:57;;;;;;;7.20;5.20;;;12.80;99.90;;;;;;5062330;28;20197;-43
2021/10/16 11:38:27;;;;;;;3.75;3.45;;;12.80;99.90;;;;;;5076119;28;20203;-47
2021/10/16 11:40:55;;;;;;;3.78;3.47;;;12.90;99.90;;;;;;5078652;28;20199;-43
2021/10/16 11:43:36;;;;;;;5.20;2.90;;;13.20;99.90;;;;;;5079954;28;20230;-47
2021/10/16 11:46:14;;;;;;;2.50;2.30;;;13.30;99.90;;;;;;5079792;28;20198;-44
2021/10/16 11:48:44;;;;;;;3.00;2.80;;;13.30;99.90;;;;;;5073603;28;20198;-48
2021/10/16 11:51:11;;;;;;;3.67;3.15;;;13.30;99.90;;;;;;5079747;28;20592;-47
2021/10/16 11:53:40;;;;;;;3.17;2.88;;;13.40;99.90;;;;;;5079728;28;20230;-47
2021/10/16 11:56:10;;;;;;;3.65;3.35;;;13.30;99.90;;;;;;5079983;28;20205;-46
2021/10/16 11:58:39;;;;;;;3.78;3.47;;;13.60;99.90;;;;;;5079940;28;20260;-47
2021/10/16 12:01:08;;;;;;;2.72;2.53;;;13.50;99.90;;;;;;5072574;28;20205;-45
2021/10/16 12:03:44;;;;;;;2.13;2.03;;;13.50;99.90;;;;;;5079983;28;20228;-45
2021/10/16 12:06:16;;;;;;;7.68;2.83;;;13.40;99.90;;;;;;5079542;28;20210;-44
2021/10/16 12:08:45;;;;;;;2.90;2.63;;;13.40;99.90;;;;;;5079844;28;20201;-46
2021/10/16 12:11:30;;;;;;;2.60;2.50;;;13.50;99.90;;;;;;5074255;28;20195;-43
2021/10/16 12:13:58;;;;;;;4.80;3.30;;;13.40;99.90;;;;;;5080708;28;20219;-48
2021/10/16 12:16:36;;;;;;;3.17;2.45;;;13.40;99.90;;;;;;5075177;28;20206;-43
2021/10/16 12:19:05;;;;;;;3.10;2.80;;;13.20;99.90;;;;;;5080142;28;20236;-43
2021/10/16 12:21:41;;;;;;;3.90;2.85;;;13.30;99.90;;;;;;5072640;28;20241;-47
2021/10/16 12:24:24;;;;;;;4.28;3.80;;;13.10;99.90;;;;;;5078173;28;20233;-44
2021/10/16 12:27:11;;;;;;;6.03;3.60;;;13.00;99.90;;;;;;5079834;28;20426;-44
2021/10/16 12:29:44;;;;;;;3.92;2.90;;;12.70;99.90;;;;;;5079410;28;20195;-45
2021/10/16 12:32:13;;;;;;;4.10;3.35;;;12.70;99.90;;;;;;5079352;28;20269;-44
2021/10/16 12:34:49;;;;;;;4.90;3.15;;;12.70;99.90;;;;;;5080354;28;20222;-49
2021/10/16 12:37:17;;;;;;;5.72;4.60;;;12.60;99.90;;;;;;5080280;28;20247;-45
2021/10/16 12:39:46;;;;;;;3.95;3.33;;;12.70;99.90;;;;;;5077088;28;20194;-47
2021/10/16 12:42:26;;;;;;;3.90;3.38;;;12.60;99.90;;;;;;5079553;28;20509;-45
2021/10/16 12:45:12;;;;;;;3.72;3.22;;;12.50;99.90;;;;;;5061039;28;20238;-51
2021/10/16 12:47:39;;;;;;;3.33;3.03;;;12.70;99.90;;;;;;5079108;28;20235;-47
2021/10/16 12:50:07;;;;;;;6.90;3.05;;;12.50;99.90;;;;;;5075773;28;20756;-46
2021/10/16 12:52:44;;;;;;;6.57;3.45;;;12.30;99.90;;;;;;5073675;28;20205;-47
2021/10/16 12:55:21;;;;;;;5.43;3.30;;;12.30;99.90;;;;;;5078595;28;20197;-45
2021/10/16 12:57:55;;;;;;;3.33;3.08;;;12.40;99.90;;;;;;5079550;28;20366;-44
2021/10/16 13:00:22;;;;;;;6.88;3.10;;;12.50;99.90;;;;;;5077910;28;20243;-45
2021/10/16 13:02:50;;;;;;;6.22;3.83;;;12.60;99.90;;;;;;5078791;28;20226;-44